sensor_id;sensor_type;location;lat;lon;timestamp;temperature;humidity
18597;DHT22;9428;50.950;6.912;2023-04-24T00:00:29;12.90;99.90
18597;DHT22;9428;50.950;6.912;2023-04-24T00:03:17;13.00;99.90
18597;DHT22;9428;50.950;6.912;2023-04-24T00:06:08;13.20;99.90
18597;DHT22;9428;50.950;6.912;2023-04-24T00:08:55;12.90;99.90
18597;DHT22;9428;50.950;6.912;2023-04-24T00:11:42;12.90;99.90
18597;DHT22;9428;50.950;6.912;2023-04-24T00:14:29;12.90;99.90
18597;DHT22;9428;50.950;6.912;2023-04-24T00:17:17;13.00;99.90
18597;DHT22;9428;50.950;6.912;2023-04-24T00:20:06;12.80;99.90
18597;DHT22;9428;50.950;6.912;2023-04-24T00:22:55;12.90;99.90
18597;DHT22;9428;50.950;6.912;2023-04-24T00:25:42;12.80;99.90
18597;DHT22;9428;50.950;6.912;2023-04-24T00:28:29;12.90;99.90
18597;DHT22;9428;50.950;6.912;2023-04-24T00:31:17;12.80;99.90
18597;DHT22;9428;50.950;6.912;2023-04-24T00:34:05;12.90;99.90
18597;DHT22;9428;50.950;6.912;2023-04-24T00:36:52;12.90;99.90
18597;DHT22;9428;50.950;6.912;2023-04-24T00:39:40;13.40;99.90
18597;DHT22;9428;50.950;6.912;2023-04-24T00:42:28;12.70;99.90
18597;DHT22;9428;50.950;6.912;2023-04-24T00:45:15;12.70;99.90
18597;DHT22;9428;50.950;6.912;2023-04-24T00:48:04;12.70;99.90
18597;DHT22;9428;50.950;6.912;2023-04-24T00:50:51;12.70;99.90
18597;DHT22;9428;50.950;6.912;2023-04-24T00:53:38;12.70;99.90
18597;DHT22;9428;50.950;6.912;2023-04-24T00:56:27;12.70;99.90
18597;DHT22;9428;50.950;6.912;2023-04-24T00:59:16;12.90;99.90
18597;DHT22;9428;50.950;6.912;2023-04-24T01:02:03;12.60;99.90
18597;DHT22;9428;50.950;6.912;2023-04-24T01:04:51;12.60;99.90
18597;DHT22;9428;50.950;6.912;2023-04-24T01:07:39;12.90;99.90
18597;DHT22;9428;50.950;6.912;2023-04-24T01:10:31;12.40;99.90
18597;DHT22;9428;50.950;6.912;2023-04-24T01:13:21;13.00;99.90
18597;DHT22;9428;50.950;6.912;2023-04-24T01:16:08;12.50;99.90
18597;DHT22;9428;50.950;6.912;2023-04-24T01:18:56;12.40;99.90
18597;DHT22;9428;50.950;6.912;2023-04-24T01:21:43;13.10;99.90
18597;DHT22;9428;50.950;6.912;2023-04-24T01:24:33;12.20;99.90
18597;DHT22;9428;50.950;6.912;2023-04-24T01:27:20;12.30;99.90
18597;DHT22;9428;50.950;6.912;2023-04-24T01:30:08;12.30;99.90
18597;DHT22;9428;50.950;6.912;2023-04-24T01:32:56;12.20;99.90
18597;DHT22;9428;50.950;6.912;2023-04-24T01:35:43;12.10;99.90
18597;DHT22;9428;50.950;6.912;2023-04-24T01:38:31;11.90;99.90
18597;DHT22;9428;50.950;6.912;2023-04-24T01:41:20;11.90;99.90
18597;DHT22;9428;50.950;6.912;2023-04-24T01:44:07;11.80;99.90
18597;DHT22;9428;50.950;6.912;2023-04-24T01:46:55;11.80;99.90
18597;DHT22;9428;50.950;6.912;2023-04-24T01:49:42;12.10;99.90
18597;DHT22;9428;50.950;6.912;2023-04-24T01:52:29;11.60;99.90
18597;DHT22;9428;50.950;6.912;2023-04-24T01:55:19;11.70;99.90
18597;DHT22;9428;50.950;6.912;2023-04-24T01:58:07;11.70;99.90
18597;DHT22;9428;50.950;6.912;2023-04-24T02:00:56;11.50;99.90
18597;DHT22;9428;50.950;6.912;2023-04-24T02:03:43;11.50;99.90
18597;DHT22;9428;50.950;6.912;2023-04-24T02:06:30;11.40;99.90
18597;DHT22;9428;50.950;6.912;2023-04-24T02:09:18;11.30;99.90
18597;DHT22;9428;50.950;6.912;2023-04-24T02:12:05;11.80;99.90
18597;DHT22;9428;50.950;6.912;2023-04-24T02:14:53;11.20;99.90
18597;DHT22;9428;50.950;6.912;2023-04-24T02:17:41;11.30;99.90
18597;DHT22;9428;50.950;6.912;2023-04-24T02:20:28;11.00;99.90
18597;DHT22;9428;50.950;6.912;2023-04-24T02:23:15;11.00;99.90
18597;DHT22;9428;50.950;6.912;2023-04-24T02:26:02;10.80;99.90
18597;DHT22;9428;50.950;6.912;2023-04-24T02:28:50;11.00;99.90
18597;DHT22;9428;50.950;6.912;2023-04-24T02:31:38;10.90;99.90
18597;DHT22;9428;50.950;6.912;2023-04-24T02:34:25;10.90;99.90
18597;DHT22;9428;50.950;6.912;2023-04-24T02:37:12;10.90;99.90
18597;DHT22;9428;50.950;6.912;2023-04-24T02:40:00;11.00;99.90
18597;DHT22;9428;50.950;6.912;2023-04-24T02:42:47;11.10;99.90
18597;DHT22;9428;50.950;6.912;2023-04-24T02:45:34;11.00;99.90
18597;DHT22;9428;50.950;6.912;2023-04-24T02:48:23;11.50;99.90
18597;DHT22;9428;50.950;6.912;2023-04-24T02:51:10;10.90;99.90
18597;DHT22;9428;50.950;6.912;2023-04-24T02:53:57;11.00;99.90
18597;DHT22;9428;50.950;6.912;2023-04-24T02:56:44;11.00;99.90
18597;DHT22;9428;50.950;6.912;2023-04-24T02:59:32;11.10;99.90
18597;DHT22;9428;50.950;6.912;2023-04-24T03:02:19;11.50;99.90
18597;DHT22;9428;50.950;6.912;2023-04-24T03:05:08;11.10;99.90
18597;DHT22;9428;50.950;6.912;2023-04-24T03:07:58;11.20;99.90
18597;DHT22;9428;50.950;6.912;2023-04-24T03:10:46;11.20;99.90
18597;DHT22;9428;50.950;6.912;2023-04-24T03:13:33;11.20;99.90
18597;DHT22;9428;50.950;6.912;2023-04-24T03:16:20;11.90;99.90
18597;DHT22;9428;50.950;6.912;2023-04-24T03:19:07;11.30;99.90
18597;DHT22;9428;50.950;6.912;2023-04-24T03:21:56;11.40;99.90
18597;DHT22;9428;50.950;6.912;2023-04-24T03:24:43;11.20;99.90
18597;DHT22;9428;50.950;6.912;2023-04-24T03:27:30;11.20;99.90
18597;DHT22;9428;50.950;6.912;2023-04-24T03:30:18;11.00;99.90
18597;DHT22;9428;50.950;6.912;2023-04-24T03:33:05;11.10;99.90
18597;DHT22;9428;50.950;6.912;2023-04-24T03:35:52;11.50;99.90
18597;DHT22;9428;50.950;6.912;2023-04-24T03:38:41;11.90;99.90
18597;DHT22;9428;50.950;6.912;2023-04-24T03:41:28;11.70;99.90
18597;DHT22;9428;50.950;6.912;2023-04-24T03:44:16;11.10;99.90
18597;DHT22;9428;50.950;6.912;2023-04-24T03:47:03;11.00;99.90
18597;DHT22;9428;50.950;6.912;2023-04-24T03:49:50;11.00;99.90
18597;DHT22;9428;50.950;6.912;2023-04-24T03:52:38;11.00;99.90
18597;DHT22;9428;50.950;6.912;2023-04-24T03:55:26;11.70;99.90
18597;DHT22;9428;50.950;6.912;2023-04-24T03:58:13;11.90;99.90
18597;DHT22;9428;50.950;6.912;2023-04-24T04:01:01;11.10;99.90
18597;DHT22;9428;50.950;6.912;2023-04-24T04:03:48;11.10;99.90
18597;DHT22;9428;50.950;6.912;2023-04-24T04:06:35;11.50;99.90
18597;DHT22;9428;50.950;6.912;2023-04-24T04:09:23;11.00;99.90
18597;DHT22;9428;50.950;6.912;2023-04-24T04:12:11;11.00;99.90
18597;DHT22;9428;50.950;6.912;2023-04-24T04:14:59;11.00;99.90
18597;DHT22;9428;50.950;6.912;2023-04-24T04:17:46;10.90;99.90
18597;DHT22;9428;50.950;6.912;2023-04-24T04:20:34;11.00;99.90
18597;DHT22;9428;50.950;6.912;2023-04-24T04:23:21;11.00;99.90
18597;DHT22;9428;50.950;6.912;2023-04-24T04:26:08;11.10;99.90
18597;DHT22;9428;50.950;6.912;2023-04-24T04:28:57;11.10;99.90
18597;DHT22;9428;50.950;6.912;2023-04-24T04:31:44;11.10;99.90
18597;DHT22;9428;50.950;6.912;2023-04-24T04:34:31;11.10;99.90
18597;DHT22;9428;50.950;6.912;2023-04-24T04:37:19;11.20;99.90
18597;DHT22;9428;50.950;6.912;2023-04-24T04:40:07;11.50;99.90
18597;DHT22;9428;50.950;6.912;2023-04-24T04:42:57;11.00;99.90
18597;DHT22;9428;50.950;6.912;2023-04-24T04:45:46;11.10;99.90
18597;DHT22;9428;50.950;6.912;2023-04-24T04:48:34;11.10;99.90
18597;DHT22;9428;50.950;6.912;2023-04-24T04:51:21;11.30;99.90
18597;DHT22;9428;50.950;6.912;2023-04-24T04:54:08;11.90;99.90
18597;DHT22;9428;50.950;6.912;2023-04-24T04:56:55;11.10;99.90
18597;DHT22;9428;50.950;6.912;2023-04-24T04:59:43;11.20;99.90
18597;DHT22;9428;50.950;6.912;2023-04-24T05:02:31;11.10;99.90
18597;DHT22;9428;50.950;6.912;2023-04-24T05:05:19;11.20;99.90
18597;DHT22;9428;50.950;6.912;2023-04-24T05:08:06;11.20;99.90
18597;DHT22;9428;50.950;6.912;2023-04-24T05:10:54;11.30;99.90
18597;DHT22;9428;50.950;6.912;2023-04-24T05:13:41;11.20;99.90
18597;DHT22;9428;50.950;6.912;2023-04-24T05:16:29;11.30;99.90
18597;DHT22;9428;50.950;6.912;2023-04-24T05:19:17;11.30;99.90
18597;DHT22;9428;50.950;6.912;2023-04-24T05:22:05;11.30;99.90
18597;DHT22;9428;50.950;6.912;2023-04-24T05:24:52;11.30;99.90
18597;DHT22;9428;50.950;6.912;2023-04-24T05:27:40;11.30;99.90
18597;DHT22;9428;50.950;6.912;2023-04-24T05:30:27;11.10;99.90
18597;DHT22;9428;50.950;6.912;2023-04-24T05:33:14;11.10;99.90
18597;DHT22;9428;50.950;6.912;2023-04-24T05:36:04;11.30;99.90
18597;DHT22;9428;50.950;6.912;2023-04-24T05:38:51;11.10;99.90
18597;DHT22;9428;50.950;6.912;2023-04-24T05:41:38;11.00;99.90
18597;DHT22;9428;50.950;6.912;2023-04-24T05:44:25;11.00;99.90
18597;DHT22;9428;50.950;6.912;2023-04-24T05:47:13;11.00;99.90
18597;DHT22;9428;50.950;6.912;2023-04-24T05:50:00;10.90;99.90
18597;DHT22;9428;50.950;6.912;2023-04-24T05:52:48;11.00;99.90
18597;DHT22;9428;50.950;6.912;2023-04-24T05:55:36;11.00;99.90
18597;DHT22;9428;50.950;6.912;2023-04-24T05:58:23;11.00;99.90
18597;DHT22;9428;50.950;6.912;2023-04-24T06:01:10;11.10;99.90
18597;DHT22;9428;50.950;6.912;2023-04-24T06:03:57;11.30;99.90
18597;DHT22;9428;50.950;6.912;2023-04-24T06:06:45;11.10;99.90
18597;DHT22;9428;50.950;6.912;2023-04-24T06:09:33;10.90;99.90
18597;DHT22;9428;50.950;6.912;2023-04-24T06:12:21;10.90;99.90
18597;DHT22;9428;50.950;6.912;2023-04-24T06:15:08;10.90;99.90
18597;DHT22;9428;50.950;6.912;2023-04-24T06:17:56;10.80;99.90
18597;DHT22;9428;50.950;6.912;2023-04-24T06:20:43;10.80;99.90
18597;DHT22;9428;50.950;6.912;2023-04-24T06:23:30;10.70;99.90
18597;DHT22;9428;50.950;6.912;2023-04-24T06:26:20;10.70;99.90
18597;DHT22;9428;50.950;6.912;2023-04-24T06:29:07;10.70;99.90
18597;DHT22;9428;50.950;6.912;2023-04-24T06:31:55;10.80;99.90
18597;DHT22;9428;50.950;6.912;2023-04-24T06:34:42;10.50;99.90
18597;DHT22;9428;50.950;6.912;2023-04-24T06:37:29;10.60;99.90
18597;DHT22;9428;50.950;6.912;2023-04-24T06:40:18;10.80;99.90
18597;DHT22;9428;50.950;6.912;2023-04-24T06:43:06;10.60;99.90
18597;DHT22;9428;50.950;6.912;2023-04-24T06:45:53;10.50;99.90
18597;DHT22;9428;50.950;6.912;2023-04-24T06:48:41;10.30;99.90
18597;DHT22;9428;50.950;6.912;2023-04-24T06:51:28;10.30;99.90
18597;DHT22;9428;50.950;6.912;2023-04-24T06:54:16;10.00;99.90
18597;DHT22;9428;50.950;6.912;2023-04-24T06:57:03;10.30;99.90
18597;DHT22;9428;50.950;6.912;2023-04-24T06:59:52;10.20;99.90
18597;DHT22;9428;50.950;6.912;2023-04-24T07:02:39;10.20;99.90
18597;DHT22;9428;50.950;6.912;2023-04-24T07:05:26;10.20;99.90
18597;DHT22;9428;50.950;6.912;2023-04-24T07:08:14;10.10;99.90
18597;DHT22;9428;50.950;6.912;2023-04-24T07:11:03;10.20;99.90
18597;DHT22;9428;50.950;6.912;2023-04-24T07:13:50;10.20;99.90
18597;DHT22;9428;50.950;6.912;2023-04-24T07:16:39;10.40;99.90
18597;DHT22;9428;50.950;6.912;2023-04-24T07:19:26;10.10;99.90
18597;DHT22;9428;50.950;6.912;2023-04-24T07:22:13;10.10;99.90
18597;DHT22;9428;50.950;6.912;2023-04-24T07:25:03;10.10;99.90
18597;DHT22;9428;50.950;6.912;2023-04-24T07:27:50;10.00;99.90
18597;DHT22;9428;50.950;6.912;2023-04-24T07:30:37;10.30;99.90
18597;DHT22;9428;50.950;6.912;2023-04-24T07:33:26;10.00;99.90
18597;DHT22;9428;50.950;6.912;2023-04-24T07:36:13;9.70;99.90
18597;DHT22;9428;50.950;6.912;2023-04-24T07:39:04;9.50;99.90
18597;DHT22;9428;50.950;6.912;2023-04-24T07:41:52;9.60;99.90
18597;DHT22;9428;50.950;6.912;2023-04-24T07:44:39;9.30;99.90
18597;DHT22;9428;50.950;6.912;2023-04-24T07:47:26;9.30;99.90
18597;DHT22;9428;50.950;6.912;2023-04-24T07:50:15;9.30;99.90
18597;DHT22;9428;50.950;6.912;2023-04-24T07:53:02;9.60;99.90
18597;DHT22;9428;50.950;6.912;2023-04-24T07:55:49;9.30;99.90
18597;DHT22;9428;50.950;6.912;2023-04-24T07:58:37;9.00;99.90
18597;DHT22;9428;50.950;6.912;2023-04-24T08:01:24;9.10;99.90
18597;DHT22;9428;50.950;6.912;2023-04-24T08:04:11;9.00;99.90
18597;DHT22;9428;50.950;6.912;2023-04-24T08:06:59;8.90;99.90
18597;DHT22;9428;50.950;6.912;2023-04-24T08:09:47;9.20;99.90
18597;DHT22;9428;50.950;6.912;2023-04-24T08:12:34;8.80;99.90
18597;DHT22;9428;50.950;6.912;2023-04-24T08:15:21;8.90;99.90
18597;DHT22;9428;50.950;6.912;2023-04-24T08:18:08;8.80;99.90
18597;DHT22;9428;50.950;6.912;2023-04-24T08:20:59;8.70;99.90
18597;DHT22;9428;50.950;6.912;2023-04-24T08:23:48;8.60;99.90
18597;DHT22;9428;50.950;6.912;2023-04-24T08:26:35;8.50;99.90
18597;DHT22;9428;50.950;6.912;2023-04-24T08:29:23;8.50;99.90
18597;DHT22;9428;50.950;6.912;2023-04-24T08:32:10;8.60;99.90
18597;DHT22;9428;50.950;6.912;2023-04-24T08:34:57;8.80;99.90
18597;DHT22;9428;50.950;6.912;2023-04-24T08:37:44;8.50;99.90
18597;DHT22;9428;50.950;6.912;2023-04-24T08:40:34;8.80;99.90
18597;DHT22;9428;50.950;6.912;2023-04-24T08:43:22;8.70;99.90
18597;DHT22;9428;50.950;6.912;2023-04-24T08:46:09;8.50;99.90
18597;DHT22;9428;50.950;6.912;2023-04-24T08:48:57;8.50;99.90
18597;DHT22;9428;50.950;6.912;2023-04-24T08:51:45;8.50;99.90
18597;DHT22;9428;50.950;6.912;2023-04-24T08:54:34;8.50;99.90
18597;DHT22;9428;50.950;6.912;2023-04-24T08:57:24;8.60;99.90
18597;DHT22;9428;50.950;6.912;2023-04-24T09:00:13;8.60;99.90
18597;DHT22;9428;50.950;6.912;2023-04-24T09:03:02;8.40;99.90
18597;DHT22;9428;50.950;6.912;2023-04-24T09:05:52;8.50;99.90
18597;DHT22;9428;50.950;6.912;2023-04-24T09:08:42;8.40;99.90
18597;DHT22;9428;50.950;6.912;2023-04-24T09:11:31;8.40;99.90
18597;DHT22;9428;50.950;6.912;2023-04-24T09:14:19;8.30;99.90
18597;DHT22;9428;50.950;6.912;2023-04-24T09:17:07;8.50;99.90
18597;DHT22;9428;50.950;6.912;2023-04-24T09:19:54;8.80;99.90
18597;DHT22;9428;50.950;6.912;2023-04-24T09:22:42;8.70;99.90
18597;DHT22;9428;50.950;6.912;2023-04-24T09:25:31;8.60;99.90
18597;DHT22;9428;50.950;6.912;2023-04-24T09:28:19;8.70;99.90
18597;DHT22;9428;50.950;6.912;2023-04-24T09:31:14;8.70;99.90
18597;DHT22;9428;50.950;6.912;2023-04-24T09:34:05;9.10;99.90
18597;DHT22;9428;50.950;6.912;2023-04-24T09:36:53;8.80;99.90
18597;DHT22;9428;50.950;6.912;2023-04-24T09:39:41;8.80;99.90
18597;DHT22;9428;50.950;6.912;2023-04-24T09:42:29;8.90;99.90
18597;DHT22;9428;50.950;6.912;2023-04-24T09:45:18;8.90;99.90
18597;DHT22;9428;50.950;6.912;2023-04-24T09:48:09;9.00;99.90
18597;DHT22;9428;50.950;6.912;2023-04-24T09:50:56;9.00;99.90
18597;DHT22;9428;50.950;6.912;2023-04-24T09:53:46;9.30;99.90
18597;DHT22;9428;50.950;6.912;2023-04-24T09:56:33;9.30;99.90
18597;DHT22;9428;50.950;6.912;2023-04-24T09:59:21;9.30;99.90
18597;DHT22;9428;50.950;6.912;2023-04-24T10:02:17;9.50;99.90
18597;DHT22;9428;50.950;6.912;2023-04-24T10:05:06;9.50;99.90
18597;DHT22;9428;50.950;6.912;2023-04-24T10:07:57;9.50;99.90
18597;DHT22;9428;50.950;6.912;2023-04-24T10:10:45;9.50;99.90
18597;DHT22;9428;50.950;6.912;2023-04-24T10:13:32;9.50;99.90
18597;DHT22;9428;50.950;6.912;2023-04-24T10:16:21;9.70;99.90
18597;DHT22;9428;50.950;6.912;2023-04-24T10:19:09;9.60;99.90
18597;DHT22;9428;50.950;6.912;2023-04-24T10:22:01;10.00;99.90
18597;DHT22;9428;50.950;6.912;2023-04-24T10:24:49;9.80;99.90
18597;DHT22;9428;50.950;6.912;2023-04-24T10:27:38;9.70;99.90
18597;DHT22;9428;50.950;6.912;2023-04-24T10:30:27;9.80;99.90
18597;DHT22;9428;50.950;6.912;2023-04-24T10:33:14;10.00;99.90
18597;DHT22;9428;50.950;6.912;2023-04-24T10:36:02;9.80;99.90
18597;DHT22;9428;50.950;6.912;2023-04-24T10:38:53;9.90;99.90
18597;DHT22;9428;50.950;6.912;2023-04-24T10:41:41;10.00;99.90
18597;DHT22;9428;50.950;6.912;2023-04-24T10:44:36;10.00;99.90
18597;DHT22;9428;50.950;6.912;2023-04-24T10:47:23;10.10;99.90
18597;DHT22;9428;50.950;6.912;2023-04-24T10:50:11;10.00;99.90
18597;DHT22;9428;50.950;6.912;2023-04-24T10:53:06;10.20;99.90
18597;DHT22;9428;50.950;6.912;2023-04-24T10:56:02;10.30;99.90
18597;DHT22;9428;50.950;6.912;2023-04-24T10:58:51;10.30;99.90
18597;DHT22;9428;50.950;6.912;2023-04-24T11:01:38;11.30;99.90
18597;DHT22;9428;50.950;6.912;2023-04-24T11:04:32;10.90;99.90
18597;DHT22;9428;50.950;6.912;2023-04-24T11:07:21;11.10;99.90
18597;DHT22;9428;50.950;6.912;2023-04-24T11:10:08;10.30;99.90
18597;DHT22;9428;50.950;6.912;2023-04-24T11:12:57;10.40;99.90
18597;DHT22;9428;50.950;6.912;2023-04-24T11:15:44;10.30;99.90
18597;DHT22;9428;50.950;6.912;2023-04-24T11:18:37;10.30;99.90
18597;DHT22;9428;50.950;6.912;2023-04-24T11:21:25;10.50;99.90
18597;DHT22;9428;50.950;6.912;2023-04-24T11:24:29;10.40;99.90
18597;DHT22;9428;50.950;6.912;2023-04-24T11:27:17;10.60;99.90
18597;DHT22;9428;50.950;6.912;2023-04-24T11:30:08;10.40;99.90
18597;DHT22;9428;50.950;6.912;2023-04-24T11:33:02;10.70;99.90
18597;DHT22;9428;50.950;6.912;2023-04-24T11:35:51;10.70;99.90
18597;DHT22;9428;50.950;6.912;2023-04-24T11:38:39;10.60;99.90
18597;DHT22;9428;50.950;6.912;2023-04-24T11:41:26;11.00;99.90
18597;DHT22;9428;50.950;6.912;2023-04-24T11:44:15;10.50;99.90
18597;DHT22;9428;50.950;6.912;2023-04-24T11:47:06;10.40;99.90
18597;DHT22;9428;50.950;6.912;2023-04-24T11:49:54;10.70;99.90
18597;DHT22;9428;50.950;6.912;2023-04-24T11:52:43;10.90;99.90
18597;DHT22;9428;50.950;6.912;2023-04-24T11:55:31;11.00;99.90
18597;DHT22;9428;50.950;6.912;2023-04-24T11:58:20;11.00;99.90
18597;DHT22;9428;50.950;6.912;2023-04-24T12:01:08;11.50;99.90
18597;DHT22;9428;50.950;6.912;2023-04-24T12:04:00;11.10;99.90
18597;DHT22;9428;50.950;6.912;2023-04-24T12:07:00;11.60;99.90
18597;DHT22;9428;50.950;6.912;2023-04-24T12:09:49;11.60;99.90
18597;DHT22;9428;50.950;6.912;2023-04-24T12:12:36;11.50;99.90
18597;DHT22;9428;50.950;6.912;2023-04-24T12:15:24;11.40;99.90
18597;DHT22;9428;50.950;6.912;2023-04-24T12:18:12;11.30;99.90
18597;DHT22;9428;50.950;6.912;2023-04-24T12:21:17;11.30;99.90
18597;DHT22;9428;50.950;6.912;2023-04-24T12:24:06;11.70;99.90
18597;DHT22;9428;50.950;6.912;2023-04-24T12:26:54;11.90;99.90
18597;DHT22;9428;50.950;6.912;2023-04-24T12:29:51;12.00;99.90
18597;DHT22;9428;50.950;6.912;2023-04-24T12:32:42;12.00;99.90
18597;DHT22;9428;50.950;6.912;2023-04-24T12:35:31;12.30;99.90
18597;DHT22;9428;50.950;6.912;2023-04-24T12:38:22;11.90;99.90
18597;DHT22;9428;50.950;6.912;2023-04-24T12:41:12;11.90;99.90
18597;DHT22;9428;50.950;6.912;2023-04-24T12:43:59;11.80;99.90
18597;DHT22;9428;50.950;6.912;2023-04-24T12:46:46;11.70;99.90
18597;DHT22;9428;50.950;6.912;2023-04-24T12:49:34;11.60;99.90
18597;DHT22;9428;50.950;6.912;2023-04-24T12:52:21;11.60;99.90
18597;DHT22;9428;50.950;6.912;2023-04-24T12:55:11;11.60;99.90
18597;DHT22;9428;50.950;6.912;2023-04-24T12:57:59;11.40;99.90
18597;DHT22;9428;50.950;6.912;2023-04-24T13:00:46;11.40;99.90
18597;DHT22;9428;50.950;6.912;2023-04-24T13:03:33;11.60;99.90
18597;DHT22;9428;50.950;6.912;2023-04-24T13:06:21;11.30;99.90
18597;DHT22;9428;50.950;6.912;2023-04-24T13:09:08;11.50;99.90
18597;DHT22;9428;50.950;6.912;2023-04-24T13:11:57;11.60;99.90
18597;DHT22;9428;50.950;6.912;2023-04-24T13:14:44;11.70;99.90
18597;DHT22;9428;50.950;6.912;2023-04-24T13:17:32;11.80;99.90
18597;DHT22;9428;50.950;6.912;2023-04-24T13:20:19;11.90;99.90
18597;DHT22;9428;50.950;6.912;2023-04-24T13:23:06;11.80;99.90
18597;DHT22;9428;50.950;6.912;2023-04-24T13:25:53;12.00;99.90
18597;DHT22;9428;50.950;6.912;2023-04-24T13:28:44;11.70;99.90
18597;DHT22;9428;50.950;6.912;2023-04-24T13:31:31;11.90;99.90
18597;DHT22;9428;50.950;6.912;2023-04-24T13:34:18;12.60;99.90
18597;DHT22;9428;50.950;6.912;2023-04-24T13:37:06;12.00;99.90
18597;DHT22;9428;50.950;6.912;2023-04-24T13:39:53;12.00;99.90
18597;DHT22;9428;50.950;6.912;2023-04-24T13:42:40;12.40;99.90
18597;DHT22;9428;50.950;6.912;2023-04-24T13:45:29;12.50;99.90
18597;DHT22;9428;50.950;6.912;2023-04-24T13:48:16;11.80;99.90
18597;DHT22;9428;50.950;6.912;2023-04-24T13:51:03;11.90;99.90
18597;DHT22;9428;50.950;6.912;2023-04-24T13:53:51;12.00;99.90
18597;DHT22;9428;50.950;6.912;2023-04-24T13:56:39;12.00;99.90
18597;DHT22;9428;50.950;6.912;2023-04-24T13:59:26;12.80;99.90
18597;DHT22;9428;50.950;6.912;2023-04-24T14:02:15;12.60;99.90
18597;DHT22;9428;50.950;6.912;2023-04-24T14:05:02;12.40;99.90
18597;DHT22;9428;50.950;6.912;2023-04-24T14:07:50;12.10;99.90
18597;DHT22;9428;50.950;6.912;2023-04-24T14:10:37;12.10;99.90
18597;DHT22;9428;50.950;6.912;2023-04-24T14:13:25;12.00;99.90
18597;DHT22;9428;50.950;6.912;2023-04-24T14:16:12;12.10;99.90
18597;DHT22;9428;50.950;6.912;2023-04-24T14:19:01;12.40;99.90
18597;DHT22;9428;50.950;6.912;2023-04-24T14:21:48;12.20;99.90
18597;DHT22;9428;50.950;6.912;2023-04-24T14:24:35;12.50;99.90
18597;DHT22;9428;50.950;6.912;2023-04-24T14:27:22;12.40;99.90
18597;DHT22;9428;50.950;6.912;2023-04-24T14:30:10;12.30;99.90
18597;DHT22;9428;50.950;6.912;2023-04-24T14:32:58;12.20;99.90
18597;DHT22;9428;50.950;6.912;2023-04-24T14:35:47;12.30;99.90
18597;DHT22;9428;50.950;6.912;2023-04-24T14:38:34;12.50;99.90
18597;DHT22;9428;50.950;6.912;2023-04-24T14:41:21;12.60;99.90
18597;DHT22;9428;50.950;6.912;2023-04-24T14:44:08;12.50;99.90
18597;DHT22;9428;50.950;6.912;2023-04-24T14:46:56;12.50;99.90
18597;DHT22;9428;50.950;6.912;2023-04-24T14:49:43;12.60;99.90
18597;DHT22;9428;50.950;6.912;2023-04-24T14:52:32;12.90;99.90
18597;DHT22;9428;50.950;6.912;2023-04-24T14:55:19;13.00;99.90
18597;DHT22;9428;50.950;6.912;2023-04-24T14:58:06;12.50;99.90
18597;DHT22;9428;50.950;6.912;2023-04-24T15:00:53;12.60;99.90
18597;DHT22;9428;50.950;6.912;2023-04-24T15:03:40;12.80;99.90
18597;DHT22;9428;50.950;6.912;2023-04-24T15:06:29;12.60;99.90
18597;DHT22;9428;50.950;6.912;2023-04-24T15:09:19;12.40;99.90
18597;DHT22;9428;50.950;6.912;2023-04-24T15:12:06;12.30;99.90
18597;DHT22;9428;50.950;6.912;2023-04-24T15:14:53;12.20;99.90
18597;DHT22;9428;50.950;6.912;2023-04-24T15:17:41;12.60;99.90
18597;DHT22;9428;50.950;6.912;2023-04-24T15:20:28;12.40;99.90
18597;DHT22;9428;50.950;6.912;2023-04-24T15:23:15;12.80;99.90
18597;DHT22;9428;50.950;6.912;2023-04-24T15:26:04;12.50;99.90
18597;DHT22;9428;50.950;6.912;2023-04-24T15:28:51;12.30;99.90
18597;DHT22;9428;50.950;6.912;2023-04-24T15:31:38;12.40;99.90
18597;DHT22;9428;50.950;6.912;2023-04-24T15:34:26;12.20;99.90
18597;DHT22;9428;50.950;6.912;2023-04-24T15:37:13;12.40;99.90
18597;DHT22;9428;50.950;6.912;2023-04-24T15:40:01;12.40;99.90
18597;DHT22;9428;50.950;6.912;2023-04-24T15:42:51;12.50;99.90
18597;DHT22;9428;50.950;6.912;2023-04-24T15:45:39;12.50;99.90
18597;DHT22;9428;50.950;6.912;2023-04-24T15:48:27;12.60;99.90
18597;DHT22;9428;50.950;6.912;2023-04-24T15:51:14;12.60;99.90
18597;DHT22;9428;50.950;6.912;2023-04-24T15:54:02;13.40;99.90
18597;DHT22;9428;50.950;6.912;2023-04-24T15:56:49;12.60;99.90
18597;DHT22;9428;50.950;6.912;2023-04-24T15:59:38;12.80;99.90
18597;DHT22;9428;50.950;6.912;2023-04-24T16:02:26;12.80;99.90
18597;DHT22;9428;50.950;6.912;2023-04-24T16:05:13;12.60;99.90
18597;DHT22;9428;50.950;6.912;2023-04-24T16:08:00;12.30;99.90
18597;DHT22;9428;50.950;6.912;2023-04-24T16:10:48;12.30;99.90
18597;DHT22;9428;50.950;6.912;2023-04-24T16:13:35;12.40;99.90
18597;DHT22;9428;50.950;6.912;2023-04-24T16:16:24;12.50;99.90
18597;DHT22;9428;50.950;6.912;2023-04-24T16:19:11;12.40;99.90
18597;DHT22;9428;50.950;6.912;2023-04-24T16:21:58;12.80;99.90
18597;DHT22;9428;50.950;6.912;2023-04-24T16:24:45;13.30;99.90
18597;DHT22;9428;50.950;6.912;2023-04-24T16:27:33;12.50;99.90
18597;DHT22;9428;50.950;6.912;2023-04-24T16:30:20;12.40;99.90
18597;DHT22;9428;50.950;6.912;2023-04-24T16:33:08;12.50;99.90
18597;DHT22;9428;50.950;6.912;2023-04-24T16:35:56;12.40;99.90
18597;DHT22;9428;50.950;6.912;2023-04-24T16:38:43;12.50;99.90
18597;DHT22;9428;50.950;6.912;2023-04-24T16:41:30;12.50;99.90
18597;DHT22;9428;50.950;6.912;2023-04-24T16:44:18;12.30;99.90
18597;DHT22;9428;50.950;6.912;2023-04-24T16:47:05;12.40;99.90
18597;DHT22;9428;50.950;6.912;2023-04-24T16:49:55;12.20;99.90
18597;DHT22;9428;50.950;6.912;2023-04-24T16:52:42;12.30;99.90
18597;DHT22;9428;50.950;6.912;2023-04-24T16:55:30;13.00;99.90
18597;DHT22;9428;50.950;6.912;2023-04-24T16:58:17;12.20;99.90
18597;DHT22;9428;50.950;6.912;2023-04-24T17:01:04;12.30;99.90
18597;DHT22;9428;50.950;6.912;2023-04-24T17:03:52;12.20;99.90
18597;DHT22;9428;50.950;6.912;2023-04-24T17:06:40;12.20;99.90
18597;DHT22;9428;50.950;6.912;2023-04-24T17:09:27;12.30;99.90
18597;DHT22;9428;50.950;6.912;2023-04-24T17:12:15;12.30;99.90
18597;DHT22;9428;50.950;6.912;2023-04-24T17:15:03;12.30;99.90
18597;DHT22;9428;50.950;6.912;2023-04-24T17:17:50;12.30;99.90
18597;DHT22;9428;50.950;6.912;2023-04-24T17:20:37;12.30;99.90
18597;DHT22;9428;50.950;6.912;2023-04-24T17:23:26;12.20;99.90
18597;DHT22;9428;50.950;6.912;2023-04-24T17:26:13;12.20;99.90
18597;DHT22;9428;50.950;6.912;2023-04-24T17:29:01;12.00;99.90
18597;DHT22;9428;50.950;6.912;2023-04-24T17:31:48;12.00;99.90
18597;DHT22;9428;50.950;6.912;2023-04-24T17:34:36;12.10;99.90
18597;DHT22;9428;50.950;6.912;2023-04-24T17:37:24;12.80;99.90
18597;DHT22;9428;50.950;6.912;2023-04-24T17:40:12;12.10;99.90
18597;DHT22;9428;50.950;6.912;2023-04-24T17:43:00;12.20;99.90
18597;DHT22;9428;50.950;6.912;2023-04-24T17:45:49;12.00;99.90
18597;DHT22;9428;50.950;6.912;2023-04-24T17:48:36;12.00;99.90
18597;DHT22;9428;50.950;6.912;2023-04-24T17:51:24;12.00;99.90
18597;DHT22;9428;50.950;6.912;2023-04-24T17:54:11;11.90;99.90
18597;DHT22;9428;50.950;6.912;2023-04-24T17:56:59;11.90;99.90
18597;DHT22;9428;50.950;6.912;2023-04-24T17:59:47;12.60;99.90
18597;DHT22;9428;50.950;6.912;2023-04-24T18:02:34;12.40;99.90